createdAt,value
2022-09-29T00:01:48.739Z,23.98
2022-09-29T00:32:00.606Z,23.86
2022-09-29T00:34:31.068Z,23.86
2022-09-29T00:37:00.468Z,23.84
2022-09-29T00:39:29.715Z,23.85
2022-09-29T00:41:59.245Z,23.84
2022-09-29T00:45:02.068Z,23.85
2022-09-29T00:47:31.580Z,23.85
2022-09-29T00:50:16.022Z,23.85
2022-09-29T00:52:45.930Z,23.85
2022-09-29T00:55:16.704Z,23.85
2022-09-29T00:57:47.297Z,23.86
2022-09-29T01:00:21.307Z,23.85
2022-09-29T01:02:51.835Z,23.85
2022-09-29T01:05:23.576Z,23.85
2022-09-29T01:07:53.004Z,23.85
2022-09-29T01:10:23.438Z,23.85
2022-09-29T01:12:52.587Z,23.85
2022-09-29T01:15:21.318Z,23.85
2022-09-29T01:17:55.043Z,23.84
2022-09-29T01:20:24.539Z,23.83
2022-09-29T01:23:26.155Z,23.83
2022-09-29T01:26:05.607Z,23.80
2022-09-29T01:29:01.187Z,23.81
2022-09-29T01:31:31.993Z,23.80
2022-09-29T01:41:34.913Z,23.76
2022-09-29T01:44:07.353Z,23.77
2022-09-29T01:46:38.671Z,23.76
2022-09-29T01:52:59.373Z,23.77
2022-09-29T01:55:30.311Z,23.75
2022-09-29T01:57:59.992Z,23.76
2022-09-29T02:00:31.959Z,23.75
2022-09-29T02:03:04.831Z,23.75
2022-09-29T02:09:16.303Z,23.75
2022-09-29T02:11:45.369Z,23.74
2022-09-29T02:14:15.859Z,23.74
2022-09-29T02:16:47.779Z,23.75
2022-09-29T02:19:18.563Z,23.73
2022-09-29T02:21:48.057Z,23.73
2022-09-29T02:24:15.983Z,23.73
2022-09-29T02:26:45.673Z,23.72
2022-09-29T02:29:14.646Z,23.71
2022-09-29T02:31:45.327Z,23.72
2022-09-29T02:45:55.446Z,23.67
2022-09-29T02:48:56.267Z,23.67
2022-09-29T03:14:32.319Z,23.63
2022-09-29T03:17:01.569Z,23.63
2022-09-29T03:19:29.464Z,23.62
2022-09-29T03:21:58.924Z,23.62
2022-09-29T03:24:27.414Z,23.62
2022-09-29T03:26:56.094Z,23.62
2022-09-29T03:29:25.109Z,23.61
2022-09-29T03:31:57.814Z,23.61
2022-09-29T03:35:15.797Z,23.60
2022-09-29T03:37:45.249Z,23.60
2022-09-29T03:40:13.128Z,23.60
2022-09-29T03:42:43.328Z,23.59
2022-09-29T03:45:13.822Z,23.58
2022-09-29T03:47:45.842Z,23.58
2022-09-29T03:50:14.284Z,23.58
2022-09-29T03:52:44.388Z,23.59
2022-09-29T03:55:12.368Z,23.58
2022-09-29T03:57:41.548Z,23.58
2022-09-29T04:00:11.152Z,23.58
2022-09-29T04:02:42.864Z,23.57
2022-09-29T04:05:14.478Z,23.57
2022-09-29T04:07:43.470Z,23.57
2022-09-29T04:10:12.597Z,23.57
2022-09-29T04:12:41.662Z,23.57
2022-09-29T04:15:12.182Z,23.56
2022-09-29T04:17:41.487Z,23.56
2022-09-29T04:20:35.204Z,23.57
2022-09-29T04:23:04.667Z,23.56
2022-09-29T04:25:33.967Z,23.55
2022-09-29T04:28:05.639Z,23.55
2022-09-29T04:30:36.817Z,23.54
2022-09-29T04:33:07.500Z,23.55
2022-09-29T04:39:18.006Z,23.53
2022-09-29T04:41:47.238Z,23.53
2022-09-29T04:44:15.247Z,23.53
2022-09-29T04:46:45.619Z,23.52
2022-09-29T04:49:17.084Z,23.52
2022-09-29T04:52:31.697Z,23.52
2022-09-29T04:55:03.521Z,23.51
2022-09-29T04:57:31.531Z,23.51
2022-09-29T05:00:00.825Z,23.49
2022-09-29T05:02:28.837Z,23.50
2022-09-29T05:08:55.666Z,23.49
2022-09-29T05:11:30.103Z,23.49
2022-09-29T05:13:59.367Z,23.51
2022-09-29T05:16:27.352Z,23.50
2022-09-29T05:18:57.834Z,23.49
2022-09-29T05:25:09.014Z,23.47
2022-09-29T05:27:40.806Z,23.47
2022-09-29T05:30:10.260Z,23.48
2022-09-29T05:32:38.267Z,23.46
2022-09-29T05:39:34.789Z,23.46
2022-09-29T05:42:04.016Z,23.45
2022-09-29T05:44:41.303Z,23.45
2022-09-29T05:47:10.356Z,23.44
2022-09-29T05:49:40.894Z,23.46
2022-09-29T05:55:50.208Z,23.44
2022-09-29T05:58:19.465Z,23.44
2022-09-29T06:00:51.386Z,23.44
2022-09-29T06:03:20.392Z,23.45
2022-09-29T06:13:32.761Z,23.42
2022-09-29T06:16:05.585Z,23.44
2022-09-29T06:18:33.623Z,23.43
2022-09-29T06:48:03.316Z,23.37
2022-09-29T07:02:05.166Z,23.37
2022-09-29T07:04:34.467Z,23.38
2022-09-29T07:08:01.453Z,23.40
2022-09-29T07:10:29.504Z,23.39
2022-09-29T07:12:57.966Z,23.40
2022-09-29T07:15:31.804Z,23.41
2022-09-29T07:18:01.113Z,23.43
2022-09-29T07:35:55.475Z,23.48
2022-09-29T07:38:24.530Z,23.48
2022-09-29T07:40:53.581Z,23.48
2022-09-29T07:43:21.820Z,23.48
2022-09-29T07:45:52.701Z,23.49
2022-09-29T07:48:21.874Z,23.51
2022-09-29T07:51:22.650Z,23.52
2022-09-29T07:53:50.850Z,23.51
2022-09-29T07:56:20.988Z,23.51
2022-09-29T07:58:50.872Z,23.53
2022-09-29T08:01:19.474Z,23.55
2022-09-29T08:03:51.744Z,23.55
2022-09-29T08:06:22.764Z,23.56
2022-09-29T08:09:04.244Z,23.58
2022-09-29T08:11:36.268Z,23.59
2022-09-29T08:14:06.613Z,23.58
2022-09-29T08:16:38.075Z,23.61
2022-09-29T08:19:07.704Z,23.60
2022-09-29T08:29:43.944Z,23.62
2022-09-29T08:32:17.354Z,23.64
2022-09-29T08:34:45.607Z,23.64
2022-09-29T08:37:14.743Z,23.68
2022-09-29T08:39:43.878Z,23.69
2022-09-29T08:42:16.141Z,23.70
2022-09-29T08:44:46.949Z,23.74
2022-09-29T08:47:19.734Z,23.77
2022-09-29T08:49:51.037Z,23.79
2022-09-29T08:52:22.648Z,23.78
2022-09-29T08:54:54.436Z,23.77
2022-09-29T08:57:22.673Z,23.80
2022-09-29T08:59:54.825Z,23.83
2022-09-29T09:02:41.416Z,23.88
2022-09-29T09:05:25.291Z,23.94
2022-09-29T09:12:03.351Z,24.03
2022-09-29T09:14:56.098Z,24.08
2022-09-29T09:17:29.685Z,24.11
2022-09-29T09:20:05.254Z,24.16
2022-09-29T09:26:27.141Z,24.19
2022-09-29T09:28:56.692Z,24.23
2022-09-29T09:31:27.800Z,24.22
2022-09-29T09:34:05.655Z,24.25
2022-09-29T09:36:37.876Z,24.30
2022-09-29T09:39:07.708Z,24.34
2022-09-29T09:41:36.423Z,24.33
2022-09-29T09:44:06.216Z,24.35
2022-09-29T09:46:39.045Z,24.34
2022-09-29T09:49:12.081Z,24.34
2022-09-29T09:55:35.002Z,24.34
2022-09-29T09:58:12.501Z,24.35
2022-09-29T10:00:42.075Z,24.38
2022-09-29T10:03:12.314Z,24.35
2022-09-29T10:05:41.240Z,24.34
2022-09-29T10:24:57.560Z,24.48
2022-09-29T10:27:26.869Z,24.53
2022-09-29T10:29:56.927Z,24.56
2022-09-29T10:32:36.396Z,24.57
2022-09-29T10:35:07.552Z,24.58
2022-09-29T10:49:15.402Z,24.70
2022-09-29T11:04:19.932Z,24.78
2022-09-29T11:15:25.776Z,24.86
2022-09-29T11:17:57.092Z,24.88
2022-09-29T11:20:31.297Z,24.90
2022-09-29T11:26:52.440Z,24.92
2022-09-29T11:29:30.066Z,24.93
2022-09-29T11:32:11.434Z,24.95
2022-09-29T11:34:48.711Z,24.96
2022-09-29T11:37:25.320Z,24.98
2022-09-29T11:39:56.528Z,24.99
2022-09-29T11:42:43.274Z,25.00
2022-09-29T11:45:15.326Z,24.99
2022-09-29T11:48:17.753Z,24.99
2022-09-29T11:50:48.438Z,25.01
2022-09-29T11:53:25.774Z,25.04
2022-09-29T11:56:09.469Z,25.05
2022-09-29T11:58:46.159Z,25.04
2022-09-29T12:01:29.745Z,25.05
2022-09-29T12:04:09.753Z,25.07
2022-09-29T12:06:54.306Z,25.08
2022-09-29T12:09:41.105Z,25.09
2022-09-29T12:12:23.210Z,25.10
2022-09-29T12:15:02.027Z,25.10
2022-09-29T12:17:31.364Z,25.10
2022-09-29T12:20:02.100Z,25.10
2022-09-29T12:22:34.517Z,25.10
2022-09-29T12:25:06.239Z,25.09
2022-09-29T12:27:38.010Z,25.10
2022-09-29T12:30:16.351Z,25.11
2022-09-29T12:32:51.985Z,25.12
2022-09-29T12:35:24.224Z,25.12
2022-09-29T12:37:55.391Z,25.09
2022-09-29T12:40:33.538Z,25.12
2022-09-29T12:43:06.253Z,25.08
2022-09-29T12:45:39.452Z,25.07
2022-09-29T12:48:17.569Z,25.07
2022-09-29T12:50:50.323Z,25.09
2022-09-29T12:53:21.869Z,25.08
2022-09-29T12:55:55.746Z,25.09
2022-09-29T12:58:29.744Z,25.10
2022-09-29T13:01:00.870Z,25.12
2022-09-29T13:03:51.072Z,25.12
2022-09-29T13:06:52.707Z,25.11
2022-09-29T13:09:32.608Z,25.08
2022-09-29T13:12:11.418Z,25.08
2022-09-29T13:14:52.245Z,25.08
2022-09-29T13:17:28.922Z,25.08
2022-09-29T13:20:23.073Z,25.07
2022-09-29T13:23:12.744Z,25.10
2022-09-29T13:25:45.051Z,25.10
2022-09-29T13:28:24.790Z,25.14
2022-09-29T13:30:52.846Z,25.15
2022-09-29T13:33:22.010Z,25.17
2022-09-29T13:35:50.583Z,25.18
2022-09-29T13:38:20.116Z,25.18
2022-09-29T13:41:10.684Z,25.19
2022-09-29T13:43:40.612Z,25.19
2022-09-29T13:46:38.624Z,25.19
2022-09-29T13:49:16.955Z,25.18
2022-09-29T13:51:46.744Z,25.18
2022-09-29T13:54:22.761Z,25.19
2022-09-29T13:56:51.825Z,25.20
2022-09-29T13:59:22.876Z,25.21
2022-09-29T14:01:51.852Z,25.21
2022-09-29T14:04:38.809Z,25.21
2022-09-29T14:07:08.047Z,25.19
2022-09-29T14:09:36.970Z,25.20
2022-09-29T14:12:08.383Z,25.22
2022-09-29T14:14:38.871Z,25.24
2022-09-29T14:17:07.261Z,25.27
2022-09-29T14:19:48.290Z,25.32
2022-09-29T14:22:54.774Z,25.36
2022-09-29T14:25:55.765Z,25.40
2022-09-29T14:28:36.948Z,25.44
2022-09-29T14:31:06.425Z,25.48
2022-09-29T14:33:37.324Z,25.51
2022-09-29T14:36:08.032Z,25.54
2022-09-29T14:38:38.267Z,25.60
2022-09-29T14:41:20.035Z,25.67
2022-09-29T14:43:48.656Z,25.74
2022-09-29T14:46:58.342Z,25.80
2022-09-29T14:50:16.296Z,25.86
2022-09-29T14:52:54.214Z,25.96
2022-09-29T14:55:26.846Z,26.07
2022-09-29T14:58:12.603Z,26.17
2022-09-29T15:00:50.763Z,26.24
2022-09-29T15:03:28.134Z,26.30
2022-09-29T15:06:13.338Z,26.35
2022-09-29T15:08:49.960Z,26.36
2022-09-29T15:11:29.064Z,26.36
2022-09-29T15:13:57.200Z,26.36
2022-09-29T15:16:30.401Z,26.34
2022-09-29T15:19:25.573Z,26.31
2022-09-29T15:25:08.247Z,26.17
2022-09-29T15:27:38.523Z,26.13
2022-09-29T15:30:12.755Z,26.08
2022-09-29T15:32:40.723Z,26.07
2022-09-29T15:35:14.684Z,26.04
2022-09-29T15:38:17.516Z,26.00
2022-09-29T15:40:54.066Z,25.96
2022-09-29T15:43:24.522Z,25.95
2022-09-29T15:45:59.094Z,25.93
2022-09-29T15:48:28.735Z,25.87
2022-09-29T15:50:59.244Z,25.82
2022-09-29T15:53:28.668Z,25.80
2022-09-29T15:55:57.633Z,25.78
2022-09-29T15:58:45.074Z,25.76
2022-09-29T16:01:16.070Z,25.74
2022-09-29T16:03:46.761Z,25.71
2022-09-29T16:06:23.021Z,25.69
2022-09-29T16:08:55.896Z,25.67
2022-09-29T16:11:33.408Z,25.64
2022-09-29T16:14:03.411Z,25.61
2022-09-29T16:16:37.043Z,25.60
2022-09-29T16:19:10.003Z,25.59
2022-09-29T16:21:41.110Z,25.56
2022-09-29T16:24:18.827Z,25.53
2022-09-29T16:26:49.033Z,25.50
2022-09-29T16:29:28.138Z,25.49
2022-09-29T16:32:03.435Z,25.47
2022-09-29T16:34:32.610Z,25.45
2022-09-29T16:37:10.402Z,25.42
2022-09-29T16:39:41.672Z,25.40
2022-09-29T16:42:29.734Z,25.40
2022-09-29T16:45:04.680Z,25.39
2022-09-29T16:47:42.340Z,25.37
2022-09-29T16:50:28.211Z,25.37
2022-09-29T16:53:00.293Z,25.34
2022-09-29T16:55:33.064Z,25.34
2022-09-29T16:58:04.538Z,25.32
2022-09-29T17:00:36.132Z,25.34
2022-09-29T17:03:06.076Z,25.31
2022-09-29T17:05:37.553Z,25.32
2022-09-29T17:08:17.359Z,25.31
2022-09-29T17:10:55.456Z,25.31
2022-09-29T17:13:27.316Z,25.30
2022-09-29T17:16:06.299Z,25.30
2022-09-29T17:18:36.652Z,25.29
2022-09-29T17:21:13.844Z,25.27
2022-09-29T17:23:46.681Z,25.26
2022-09-29T17:26:40.767Z,25.25
2022-09-29T17:29:13.785Z,25.24
2022-09-29T17:31:55.190Z,25.22
2022-09-29T17:34:30.160Z,25.20
2022-09-29T17:37:04.238Z,25.20
2022-09-29T17:39:37.523Z,25.20
2022-09-29T17:42:08.181Z,25.18
2022-09-29T17:44:42.413Z,25.19
2022-09-29T17:47:29.698Z,25.18
2022-09-29T17:50:01.835Z,25.16
2022-09-29T17:52:40.568Z,25.17
2022-09-29T17:55:18.064Z,25.16
2022-09-29T17:57:56.342Z,25.14
2022-09-29T18:00:36.498Z,25.14
2022-09-29T18:03:13.905Z,25.14
2022-09-29T18:05:58.534Z,25.14
2022-09-29T18:08:36.527Z,25.14
2022-09-29T18:11:13.364Z,25.15
2022-09-29T18:13:52.516Z,25.13
2022-09-29T18:16:23.630Z,25.15
2022-09-29T18:19:00.648Z,25.14
2022-09-29T18:21:38.030Z,25.14
2022-09-29T18:24:13.544Z,25.12
2022-09-29T18:26:53.906Z,25.13
2022-09-29T18:29:22.380Z,25.13
2022-09-29T18:31:56.734Z,25.14
2022-09-29T18:34:32.192Z,25.14
2022-09-29T18:37:08.461Z,25.15
2022-09-29T18:39:41.497Z,25.14
2022-09-29T18:42:21.467Z,25.14
2022-09-29T18:45:00.631Z,25.14
2022-09-29T18:47:42.946Z,25.15
2022-09-29T18:50:29.789Z,25.17
2022-09-29T18:53:01.478Z,25.15
2022-09-29T18:55:35.389Z,25.16
2022-09-29T18:58:12.951Z,25.16
2022-09-29T19:00:44.894Z,25.15
2022-09-29T19:03:25.534Z,25.15
2022-09-29T19:05:57.694Z,25.15
2022-09-29T19:08:39.499Z,25.14
2022-09-29T19:11:12.709Z,25.13
2022-09-29T19:13:49.977Z,25.14
2022-09-29T19:16:18.158Z,25.13
2022-09-29T19:18:53.484Z,25.11
2022-09-29T19:21:33.937Z,25.12
2022-09-29T19:24:06.176Z,25.11
2022-09-29T19:26:34.476Z,25.11
2022-09-29T19:29:10.777Z,25.11
2022-09-29T19:31:43.035Z,25.10
2022-09-29T19:34:13.204Z,25.10
2022-09-29T19:36:49.657Z,25.09
2022-09-29T19:39:18.996Z,25.09
2022-09-29T19:41:57.486Z,25.07
2022-09-29T19:44:29.453Z,25.07
2022-09-29T19:47:09.568Z,25.04
2022-09-29T19:49:41.337Z,25.05
2022-09-29T19:52:19.113Z,25.04
2022-09-29T19:54:54.303Z,25.04
2022-09-29T19:57:27.384Z,25.04
2022-09-29T20:00:06.839Z,25.03
2022-09-29T20:02:42.418Z,25.03
2022-09-29T20:05:14.654Z,25.02
2022-09-29T20:07:48.359Z,25.03
2022-09-29T20:10:22.796Z,25.01
2022-09-29T20:12:56.429Z,25.01
2022-09-29T20:15:33.963Z,25.01
2022-09-29T20:18:07.728Z,25.01
2022-09-29T20:20:40.859Z,25.01
2022-09-29T20:23:19.240Z,25.01
2022-09-29T20:25:51.357Z,25.00
2022-09-29T20:28:22.458Z,24.99
2022-09-29T20:30:59.811Z,24.99
2022-09-29T20:33:32.666Z,24.99
2022-09-29T20:36:05.346Z,24.98
2022-09-29T20:38:40.796Z,24.97
2022-09-29T20:41:09.995Z,24.97
2022-09-29T20:43:38.885Z,24.97
2022-09-29T20:46:13.173Z,24.96
2022-09-29T20:48:47.462Z,24.95
2022-09-29T20:51:18.064Z,24.93
2022-09-29T20:53:54.986Z,24.94
2022-09-29T20:56:36.414Z,24.93
2022-09-29T20:59:06.474Z,24.92
2022-09-29T21:01:43.077Z,24.93
2022-09-29T21:04:16.595Z,24.91
2022-09-29T21:06:52.858Z,24.92
2022-09-29T21:09:23.399Z,24.92
2022-09-29T21:11:57.341Z,24.92
2022-09-29T21:14:30.489Z,24.91
2022-09-29T21:17:08.610Z,24.92
2022-09-29T21:19:42.797Z,24.91
2022-09-29T21:22:17.215Z,24.90
2022-09-29T21:24:54.620Z,24.90
2022-09-29T21:27:28.327Z,24.90
2022-09-29T21:30:04.250Z,24.90
2022-09-29T21:32:43.548Z,24.89
2022-09-29T21:35:16.478Z,24.88
2022-09-29T21:37:50.428Z,24.87
2022-09-29T21:40:23.732Z,24.86
2022-09-29T21:42:54.182Z,24.85
2022-09-29T21:45:39.478Z,24.84
2022-09-29T21:48:18.251Z,24.84
2022-09-29T21:50:49.039Z,24.82
2022-09-29T21:53:20.906Z,24.82
2022-09-29T21:55:54.070Z,24.81
2022-09-29T21:58:26.297Z,24.81
2022-09-29T22:00:56.583Z,24.79
2022-09-29T22:03:32.278Z,24.79
2022-09-29T22:06:02.868Z,24.80
2022-09-29T22:08:31.997Z,24.78
2022-09-29T22:11:02.196Z,24.77
2022-09-29T22:13:30.197Z,24.79
2022-09-29T22:16:09.131Z,24.78
2022-09-29T22:18:42.205Z,24.77
2022-09-29T22:21:15.266Z,24.76
2022-09-29T22:23:43.887Z,24.75
2022-09-29T22:26:14.983Z,24.75
2022-09-29T22:28:45.123Z,24.75
2022-09-29T22:31:17.627Z,24.74
2022-09-29T22:33:48.156Z,24.74
2022-09-29T22:36:20.149Z,24.73
2022-09-29T22:38:48.410Z,24.71
2022-09-29T22:41:18.388Z,24.70
2022-09-29T22:43:47.401Z,24.68
2022-09-29T22:46:16.839Z,24.67
2022-09-29T22:48:47.416Z,24.66
2022-09-29T22:51:16.454Z,24.64
2022-09-29T22:53:44.516Z,24.64
2022-09-29T22:56:15.950Z,24.65
2022-09-29T22:58:45.117Z,24.63
2022-09-29T23:01:16.586Z,24.63
2022-09-29T23:03:48.895Z,24.62
2022-09-29T23:06:20.239Z,24.61
2022-09-29T23:08:49.308Z,24.61
2022-09-29T23:11:19.532Z,24.61
2022-09-29T23:13:48.898Z,24.59
2022-09-29T23:16:18.506Z,24.60
2022-09-29T23:18:53.083Z,24.60
2022-09-29T23:21:21.732Z,24.60
2022-09-29T23:23:52.604Z,24.59
2022-09-29T23:26:22.116Z,24.58
2022-09-29T23:28:52.799Z,24.59
2022-09-29T23:31:22.395Z,24.58
2022-09-29T23:33:56.570Z,24.56
2022-09-29T23:36:26.812Z,24.57
2022-09-29T23:39:10.217Z,24.57
2022-09-29T23:41:39.635Z,24.55
2022-09-29T23:44:08.833Z,24.55
2022-09-29T23:46:38.340Z,24.55
2022-09-29T23:49:10.244Z,24.54
2022-09-29T23:51:40.543Z,24.53
2022-09-29T23:54:09.987Z,24.53
2022-09-29T23:56:39.075Z,24.52
2022-09-29T23:59:08.188Z,24.51
